sensor_id;sensor_type;location;lat;lon;timestamp;P1;durP1;ratioP1;P2;durP2;ratioP2
72801;SDS011;61891;55.818;37.084;2022-08-11T00:01:07;2.95;;;1.70;;
72801;SDS011;61891;55.818;37.084;2022-08-11T00:03:35;3.10;;;1.70;;
72801;SDS011;61891;55.818;37.084;2022-08-11T00:06:08;2.05;;;1.50;;
72801;SDS011;61891;55.818;37.084;2022-08-11T00:08:35;2.17;;;1.67;;
72801;SDS011;61891;55.818;37.084;2022-08-11T00:11:03;2.53;;;1.63;;
72801;SDS011;61891;55.818;37.084;2022-08-11T00:13:49;2.95;;;1.85;;
72801;SDS011;61891;55.818;37.084;2022-08-11T00:16:16;3.17;;;1.95;;
72801;SDS011;61891;55.818;37.084;2022-08-11T00:18:48;2.63;;;1.73;;
72801;SDS011;61891;55.818;37.084;2022-08-11T00:21:15;2.00;;;1.58;;
72801;SDS011;61891;55.818;37.084;2022-08-11T00:23:44;2.90;;;1.65;;
72801;SDS011;61891;55.818;37.084;2022-08-11T00:26:18;2.70;;;1.48;;
72801;SDS011;61891;55.818;37.084;2022-08-11T00:28:46;3.53;;;2.08;;
72801;SDS011;61891;55.818;37.084;2022-08-11T00:33:56;2.53;;;1.73;;
72801;SDS011;61891;55.818;37.084;2022-08-11T00:36:29;2.55;;;1.75;;
72801;SDS011;61891;55.818;37.084;2022-08-11T00:39:07;3.67;;;1.65;;
72801;SDS011;61891;55.818;37.084;2022-08-11T00:41:38;3.72;;;1.80;;
72801;SDS011;61891;55.818;37.084;2022-08-11T00:44:30;2.72;;;1.95;;
72801;SDS011;61891;55.818;37.084;2022-08-11T00:49:46;3.47;;;1.85;;
72801;SDS011;61891;55.818;37.084;2022-08-11T00:57:52;3.10;;;1.90;;
72801;SDS011;61891;55.818;37.084;2022-08-11T01:00:45;2.20;;;1.77;;
72801;SDS011;61891;55.818;37.084;2022-08-11T01:28:54;3.92;;;2.60;;
72801;SDS011;61891;55.818;37.084;2022-08-11T01:45:50;4.35;;;2.63;;
72801;SDS011;61891;55.818;37.084;2022-08-11T01:51:10;4.60;;;2.97;;
72801;SDS011;61891;55.818;37.084;2022-08-11T01:56:22;5.18;;;2.75;;
72801;SDS011;61891;55.818;37.084;2022-08-11T02:01:37;6.15;;;2.55;;
72801;SDS011;61891;55.818;37.084;2022-08-11T02:10:02;4.47;;;2.55;;
72801;SDS011;61891;55.818;37.084;2022-08-11T02:18:54;4.95;;;2.92;;
72801;SDS011;61891;55.818;37.084;2022-08-11T02:22:05;5.07;;;2.90;;
72801;SDS011;61891;55.818;37.084;2022-08-11T02:25:06;4.88;;;2.70;;
72801;SDS011;61891;55.818;37.084;2022-08-11T02:27:42;3.10;;;2.70;;
72801;SDS011;61891;55.818;37.084;2022-08-11T02:30:19;3.80;;;2.92;;
72801;SDS011;61891;55.818;37.084;2022-08-11T02:32:53;5.10;;;3.13;;
72801;SDS011;61891;55.818;37.084;2022-08-11T02:38:36;4.78;;;2.30;;
72801;SDS011;61891;55.818;37.084;2022-08-11T02:41:25;3.42;;;2.35;;
72801;SDS011;61891;55.818;37.084;2022-08-11T02:50:13;4.63;;;3.10;;
72801;SDS011;61891;55.818;37.084;2022-08-11T02:52:58;4.35;;;2.38;;
72801;SDS011;61891;55.818;37.084;2022-08-11T02:55:42;2.80;;;2.60;;
72801;SDS011;61891;55.818;37.084;2022-08-11T03:12:57;3.10;;;2.30;;
72801;SDS011;61891;55.818;37.084;2022-08-11T03:15:54;3.90;;;2.55;;
72801;SDS011;61891;55.818;37.084;2022-08-11T03:18:44;3.72;;;3.10;;
72801;SDS011;61891;55.818;37.084;2022-08-11T03:21:32;5.13;;;2.80;;
72801;SDS011;61891;55.818;37.084;2022-08-11T03:24:13;5.63;;;3.70;;
72801;SDS011;61891;55.818;37.084;2022-08-11T03:32:17;4.57;;;2.88;;
72801;SDS011;61891;55.818;37.084;2022-08-11T03:34:50;3.75;;;2.97;;
72801;SDS011;61891;55.818;37.084;2022-08-11T03:51:31;4.43;;;2.75;;
72801;SDS011;61891;55.818;37.084;2022-08-11T04:06:04;4.07;;;2.80;;
72801;SDS011;61891;55.818;37.084;2022-08-11T04:20:43;5.18;;;3.13;;
72801;SDS011;61891;55.818;37.084;2022-08-11T04:23:29;4.22;;;2.88;;
72801;SDS011;61891;55.818;37.084;2022-08-11T04:26:29;4.30;;;3.10;;
72801;SDS011;61891;55.818;37.084;2022-08-11T04:31:33;3.88;;;2.88;;
72801;SDS011;61891;55.818;37.084;2022-08-11T04:34:23;5.25;;;3.28;;
72801;SDS011;61891;55.818;37.084;2022-08-11T04:40:03;3.25;;;2.65;;
72801;SDS011;61891;55.818;37.084;2022-08-11T05:01:11;6.45;;;2.92;;
72801;SDS011;61891;55.818;37.084;2022-08-11T05:14:50;3.67;;;2.20;;
72801;SDS011;61891;55.818;37.084;2022-08-11T05:20:24;3.72;;;2.05;;
72801;SDS011;61891;55.818;37.084;2022-08-11T05:23:10;3.47;;;1.92;;
72801;SDS011;61891;55.818;37.084;2022-08-11T05:25:55;3.45;;;1.90;;
72801;SDS011;61891;55.818;37.084;2022-08-11T05:28:49;2.30;;;1.63;;
72801;SDS011;61891;55.818;37.084;2022-08-11T05:31:37;2.17;;;1.52;;
72801;SDS011;61891;55.818;37.084;2022-08-11T05:34:27;2.45;;;1.70;;
72801;SDS011;61891;55.818;37.084;2022-08-11T05:40:10;2.30;;;1.50;;
72801;SDS011;61891;55.818;37.084;2022-08-11T05:43:03;4.40;;;1.67;;
72801;SDS011;61891;55.818;37.084;2022-08-11T05:45:58;2.17;;;1.88;;
72801;SDS011;61891;55.818;37.084;2022-08-11T05:48:45;2.80;;;1.40;;
72801;SDS011;61891;55.818;37.084;2022-08-11T05:51:34;2.17;;;1.33;;
72801;SDS011;61891;55.818;37.084;2022-08-11T05:54:19;1.88;;;1.40;;
72801;SDS011;61891;55.818;37.084;2022-08-11T05:59:29;2.53;;;1.73;;
72801;SDS011;61891;55.818;37.084;2022-08-11T06:02:04;1.42;;;1.20;;
72801;SDS011;61891;55.818;37.084;2022-08-11T06:04:31;2.33;;;1.55;;
72801;SDS011;61891;55.818;37.084;2022-08-11T06:07:00;2.40;;;1.55;;
72801;SDS011;61891;55.818;37.084;2022-08-11T06:12:20;2.30;;;1.60;;
72801;SDS011;61891;55.818;37.084;2022-08-11T06:14:50;2.95;;;1.40;;
72801;SDS011;61891;55.818;37.084;2022-08-11T06:17:26;2.03;;;1.30;;
72801;SDS011;61891;55.818;37.084;2022-08-11T06:19:59;2.60;;;1.55;;
72801;SDS011;61891;55.818;37.084;2022-08-11T06:22:28;1.83;;;1.10;;
72801;SDS011;61891;55.818;37.084;2022-08-11T06:24:56;2.65;;;1.35;;
72801;SDS011;61891;55.818;37.084;2022-08-11T06:27:25;1.42;;;1.33;;
72801;SDS011;61891;55.818;37.084;2022-08-11T06:29:54;4.65;;;1.48;;
72801;SDS011;61891;55.818;37.084;2022-08-11T06:33:03;3.28;;;1.27;;
72801;SDS011;61891;55.818;37.084;2022-08-11T06:37:56;4.30;;;1.50;;
72801;SDS011;61891;55.818;37.084;2022-08-11T06:43:20;1.58;;;1.30;;
72801;SDS011;61891;55.818;37.084;2022-08-11T06:45:54;2.53;;;1.42;;
72801;SDS011;61891;55.818;37.084;2022-08-11T06:48:28;3.40;;;1.60;;
72801;SDS011;61891;55.818;37.084;2022-08-11T06:51:03;3.05;;;1.42;;
72801;SDS011;61891;55.818;37.084;2022-08-11T06:53:46;2.55;;;1.40;;
72801;SDS011;61891;55.818;37.084;2022-08-11T06:56:15;2.35;;;1.60;;
72801;SDS011;61891;55.818;37.084;2022-08-11T06:59:06;2.45;;;1.90;;
72801;SDS011;61891;55.818;37.084;2022-08-11T07:10:23;4.80;;;1.35;;
72801;SDS011;61891;55.818;37.084;2022-08-11T07:13:10;2.05;;;1.40;;
72801;SDS011;61891;55.818;37.084;2022-08-11T07:15:59;1.90;;;1.40;;
72801;SDS011;61891;55.818;37.084;2022-08-11T07:18:26;3.17;;;1.77;;
72801;SDS011;61891;55.818;37.084;2022-08-11T07:21:34;3.75;;;2.25;;
72801;SDS011;61891;55.818;37.084;2022-08-11T07:24:28;1.90;;;1.70;;
72801;SDS011;61891;55.818;37.084;2022-08-11T07:27:17;3.10;;;1.52;;
72801;SDS011;61891;55.818;37.084;2022-08-11T07:30:09;1.50;;;1.40;;
72801;SDS011;61891;55.818;37.084;2022-08-11T07:32:36;1.95;;;1.40;;
72801;SDS011;61891;55.818;37.084;2022-08-11T07:35:19;2.38;;;1.38;;
72801;SDS011;61891;55.818;37.084;2022-08-11T07:37:54;1.45;;;1.30;;
72801;SDS011;61891;55.818;37.084;2022-08-11T07:40:23;1.42;;;1.33;;
72801;SDS011;61891;55.818;37.084;2022-08-11T07:42:49;2.22;;;1.42;;
72801;SDS011;61891;55.818;37.084;2022-08-11T07:45:18;2.20;;;1.50;;
72801;SDS011;61891;55.818;37.084;2022-08-11T07:48:03;1.52;;;1.27;;
72801;SDS011;61891;55.818;37.084;2022-08-11T07:50:49;2.70;;;1.42;;
72801;SDS011;61891;55.818;37.084;2022-08-11T07:53:34;12.27;;;10.70;;
72801;SDS011;61891;55.818;37.084;2022-08-11T07:56:02;2.15;;;1.60;;
72801;SDS011;61891;55.818;37.084;2022-08-11T07:58:33;3.72;;;1.75;;
72801;SDS011;61891;55.818;37.084;2022-08-11T08:01:23;2.88;;;1.52;;
72801;SDS011;61891;55.818;37.084;2022-08-11T08:04:12;2.65;;;1.23;;
72801;SDS011;61891;55.818;37.084;2022-08-11T08:07:00;1.55;;;1.30;;
72801;SDS011;61891;55.818;37.084;2022-08-11T08:09:47;4.82;;;1.50;;
72801;SDS011;61891;55.818;37.084;2022-08-11T08:12:32;2.95;;;1.60;;
72801;SDS011;61891;55.818;37.084;2022-08-11T08:15:17;3.00;;;1.52;;
72801;SDS011;61891;55.818;37.084;2022-08-11T08:18:12;1.45;;;1.30;;
72801;SDS011;61891;55.818;37.084;2022-08-11T08:22:19;2.10;;;1.33;;
72801;SDS011;61891;55.818;37.084;2022-08-11T08:24:46;3.20;;;1.40;;
72801;SDS011;61891;55.818;37.084;2022-08-11T08:27:13;1.35;;;1.20;;
72801;SDS011;61891;55.818;37.084;2022-08-11T08:29:39;3.38;;;1.50;;
72801;SDS011;61891;55.818;37.084;2022-08-11T08:32:26;3.80;;;1.13;;
72801;SDS011;61891;55.818;37.084;2022-08-11T08:34:53;1.88;;;1.38;;
72801;SDS011;61891;55.818;37.084;2022-08-11T08:37:21;1.70;;;1.50;;
72801;SDS011;61891;55.818;37.084;2022-08-11T08:39:51;2.00;;;1.50;;
72801;SDS011;61891;55.818;37.084;2022-08-11T08:42:25;4.15;;;1.77;;
72801;SDS011;61891;55.818;37.084;2022-08-11T08:45:01;2.00;;;1.80;;
72801;SDS011;61891;55.818;37.084;2022-08-11T08:47:30;3.13;;;2.70;;
72801;SDS011;61891;55.818;37.084;2022-08-11T08:50:02;3.60;;;2.08;;
72801;SDS011;61891;55.818;37.084;2022-08-11T08:52:33;2.75;;;1.70;;
72801;SDS011;61891;55.818;37.084;2022-08-11T08:55:05;1.75;;;1.65;;
72801;SDS011;61891;55.818;37.084;2022-08-11T08:57:32;1.67;;;1.55;;
72801;SDS011;61891;55.818;37.084;2022-08-11T09:00:00;1.95;;;1.70;;
72801;SDS011;61891;55.818;37.084;2022-08-11T09:02:29;2.60;;;2.35;;
72801;SDS011;61891;55.818;37.084;2022-08-11T09:04:56;3.85;;;2.28;;
72801;SDS011;61891;55.818;37.084;2022-08-11T09:07:23;4.43;;;2.38;;
72801;SDS011;61891;55.818;37.084;2022-08-11T09:09:51;2.42;;;1.80;;
72801;SDS011;61891;55.818;37.084;2022-08-11T09:12:19;3.15;;;2.30;;
72801;SDS011;61891;55.818;37.084;2022-08-11T09:14:49;2.65;;;1.85;;
72801;SDS011;61891;55.818;37.084;2022-08-11T09:17:25;3.72;;;2.22;;
72801;SDS011;61891;55.818;37.084;2022-08-11T09:19:54;2.25;;;1.98;;
72801;SDS011;61891;55.818;37.084;2022-08-11T09:22:28;2.30;;;1.70;;
72801;SDS011;61891;55.818;37.084;2022-08-11T09:28:00;2.65;;;1.92;;
72801;SDS011;61891;55.818;37.084;2022-08-11T09:30:29;2.58;;;2.05;;
72801;SDS011;61891;55.818;37.084;2022-08-11T09:32:58;3.10;;;1.80;;
72801;SDS011;61891;55.818;37.084;2022-08-11T09:35:26;2.78;;;1.80;;
72801;SDS011;61891;55.818;37.084;2022-08-11T09:37:56;2.05;;;1.92;;
72801;SDS011;61891;55.818;37.084;2022-08-11T09:40:42;2.05;;;1.77;;
72801;SDS011;61891;55.818;37.084;2022-08-11T09:43:11;2.28;;;1.80;;
72801;SDS011;61891;55.818;37.084;2022-08-11T09:46:00;3.97;;;1.92;;
72801;SDS011;61891;55.818;37.084;2022-08-11T09:48:28;2.47;;;2.08;;
72801;SDS011;61891;55.818;37.084;2022-08-11T09:50:56;3.88;;;2.00;;
72801;SDS011;61891;55.818;37.084;2022-08-11T09:53:25;2.08;;;1.88;;
72801;SDS011;61891;55.818;37.084;2022-08-11T09:55:54;2.17;;;1.73;;
72801;SDS011;61891;55.818;37.084;2022-08-11T09:58:21;2.30;;;1.83;;
72801;SDS011;61891;55.818;37.084;2022-08-11T10:00:49;2.80;;;2.10;;
72801;SDS011;61891;55.818;37.084;2022-08-11T10:03:17;2.22;;;1.98;;
72801;SDS011;61891;55.818;37.084;2022-08-11T10:05:47;2.20;;;2.00;;
72801;SDS011;61891;55.818;37.084;2022-08-11T10:08:38;2.28;;;1.98;;
72801;SDS011;61891;55.818;37.084;2022-08-11T10:11:07;2.67;;;1.90;;
72801;SDS011;61891;55.818;37.084;2022-08-11T10:13:38;1.90;;;1.80;;
72801;SDS011;61891;55.818;37.084;2022-08-11T10:16:26;1.98;;;1.88;;
72801;SDS011;61891;55.818;37.084;2022-08-11T10:18:54;5.10;;;2.00;;
72801;SDS011;61891;55.818;37.084;2022-08-11T10:23:53;2.42;;;1.70;;
72801;SDS011;61891;55.818;37.084;2022-08-11T10:26:38;2.45;;;2.25;;
72801;SDS011;61891;55.818;37.084;2022-08-11T10:29:22;3.40;;;2.00;;
72801;SDS011;61891;55.818;37.084;2022-08-11T10:32:09;1.80;;;1.70;;
72801;SDS011;61891;55.818;37.084;2022-08-11T10:34:56;3.92;;;1.83;;
72801;SDS011;61891;55.818;37.084;2022-08-11T10:37:24;3.78;;;1.92;;
72801;SDS011;61891;55.818;37.084;2022-08-11T10:39:50;2.33;;;1.70;;
72801;SDS011;61891;55.818;37.084;2022-08-11T10:42:17;1.88;;;1.70;;
72801;SDS011;61891;55.818;37.084;2022-08-11T10:45:03;2.08;;;1.90;;
72801;SDS011;61891;55.818;37.084;2022-08-11T10:47:51;3.13;;;1.80;;
72801;SDS011;61891;55.818;37.084;2022-08-11T10:50:20;2.85;;;1.75;;
72801;SDS011;61891;55.818;37.084;2022-08-11T10:53:05;2.00;;;1.90;;
72801;SDS011;61891;55.818;37.084;2022-08-11T10:55:50;2.70;;;2.50;;
72801;SDS011;61891;55.818;37.084;2022-08-11T10:58:38;2.65;;;1.98;;
72801;SDS011;61891;55.818;37.084;2022-08-11T11:03:46;1.67;;;1.55;;
72801;SDS011;61891;55.818;37.084;2022-08-11T11:06:20;2.50;;;2.13;;
72801;SDS011;61891;55.818;37.084;2022-08-11T11:08:55;2.17;;;1.73;;
72801;SDS011;61891;55.818;37.084;2022-08-11T11:11:30;2.72;;;2.10;;
72801;SDS011;61891;55.818;37.084;2022-08-11T11:14:19;3.10;;;2.35;;
72801;SDS011;61891;55.818;37.084;2022-08-11T11:17:05;2.97;;;1.95;;
72801;SDS011;61891;55.818;37.084;2022-08-11T11:19:56;3.33;;;1.85;;
72801;SDS011;61891;55.818;37.084;2022-08-11T11:22:25;2.33;;;2.08;;
72801;SDS011;61891;55.818;37.084;2022-08-11T11:36:14;2.92;;;2.03;;
72801;SDS011;61891;55.818;37.084;2022-08-11T11:38:53;3.13;;;2.83;;
72801;SDS011;61891;55.818;37.084;2022-08-11T11:41:21;2.60;;;2.35;;
72801;SDS011;61891;55.818;37.084;2022-08-11T11:43:52;2.30;;;2.05;;
72801;SDS011;61891;55.818;37.084;2022-08-11T11:46:20;4.22;;;2.38;;
72801;SDS011;61891;55.818;37.084;2022-08-11T11:48:47;2.80;;;2.10;;
72801;SDS011;61891;55.818;37.084;2022-08-11T11:51:13;2.83;;;2.13;;
72801;SDS011;61891;55.818;37.084;2022-08-11T11:53:42;2.10;;;2.00;;
72801;SDS011;61891;55.818;37.084;2022-08-11T11:56:10;3.40;;;2.20;;
72801;SDS011;61891;55.818;37.084;2022-08-11T11:58:37;3.05;;;2.00;;
72801;SDS011;61891;55.818;37.084;2022-08-11T12:01:23;2.45;;;2.25;;
72801;SDS011;61891;55.818;37.084;2022-08-11T12:03:51;2.47;;;2.28;;
72801;SDS011;61891;55.818;37.084;2022-08-11T12:06:19;2.53;;;2.00;;
72801;SDS011;61891;55.818;37.084;2022-08-11T12:08:47;2.83;;;2.20;;
72801;SDS011;61891;55.818;37.084;2022-08-11T12:11:15;1.90;;;1.80;;
72801;SDS011;61891;55.818;37.084;2022-08-11T12:14:01;2.58;;;2.38;;
72801;SDS011;61891;55.818;37.084;2022-08-11T12:16:29;4.03;;;2.38;;
72801;SDS011;61891;55.818;37.084;2022-08-11T12:18:57;2.85;;;2.47;;
72801;SDS011;61891;55.818;37.084;2022-08-11T12:21:25;2.78;;;2.58;;
72801;SDS011;61891;55.818;37.084;2022-08-11T12:23:53;4.18;;;2.30;;
72801;SDS011;61891;55.818;37.084;2022-08-11T12:26:39;6.75;;;3.70;;
72801;SDS011;61891;55.818;37.084;2022-08-11T12:29:25;2.58;;;2.35;;
72801;SDS011;61891;55.818;37.084;2022-08-11T12:31:53;2.70;;;2.10;;
72801;SDS011;61891;55.818;37.084;2022-08-11T12:34:19;10.35;;;9.52;;
72801;SDS011;61891;55.818;37.084;2022-08-11T12:37:06;3.83;;;3.25;;
72801;SDS011;61891;55.818;37.084;2022-08-11T12:39:37;4.10;;;3.35;;
72801;SDS011;61891;55.818;37.084;2022-08-11T12:42:30;2.63;;;2.42;;
72801;SDS011;61891;55.818;37.084;2022-08-11T12:45:16;3.90;;;2.53;;
72801;SDS011;61891;55.818;37.084;2022-08-11T12:47:58;2.50;;;2.30;;
72801;SDS011;61891;55.818;37.084;2022-08-11T12:50:49;2.95;;;2.60;;
72801;SDS011;61891;55.818;37.084;2022-08-11T12:53:38;2.50;;;2.30;;
72801;SDS011;61891;55.818;37.084;2022-08-11T12:56:07;2.60;;;2.40;;
72801;SDS011;61891;55.818;37.084;2022-08-11T12:58:52;2.28;;;2.17;;
72801;SDS011;61891;55.818;37.084;2022-08-11T13:01:39;2.55;;;2.22;;
72801;SDS011;61891;55.818;37.084;2022-08-11T13:04:23;3.25;;;2.67;;
72801;SDS011;61891;55.818;37.084;2022-08-11T13:07:16;2.40;;;2.20;;
72801;SDS011;61891;55.818;37.084;2022-08-11T13:27:25;4.05;;;2.78;;
72801;SDS011;61891;55.818;37.084;2022-08-11T13:31:44;4.18;;;2.60;;
72801;SDS011;61891;55.818;37.084;2022-08-11T13:35:56;3.15;;;2.58;;
72801;SDS011;61891;55.818;37.084;2022-08-11T13:43:49;2.30;;;2.13;;
72801;SDS011;61891;55.818;37.084;2022-08-11T14:00:00;3.50;;;2.28;;
72801;SDS011;61891;55.818;37.084;2022-08-11T14:04:27;2.45;;;2.25;;
72801;SDS011;61891;55.818;37.084;2022-08-11T14:07:22;2.03;;;1.83;;
72801;SDS011;61891;55.818;37.084;2022-08-11T14:10:17;2.75;;;2.50;;
72801;SDS011;61891;55.818;37.084;2022-08-11T14:13:15;3.65;;;2.47;;
72801;SDS011;61891;55.818;37.084;2022-08-11T14:16:05;2.50;;;2.30;;
72801;SDS011;61891;55.818;37.084;2022-08-11T14:23:06;2.50;;;2.30;;
72801;SDS011;61891;55.818;37.084;2022-08-11T14:27:15;2.65;;;2.45;;
72801;SDS011;61891;55.818;37.084;2022-08-11T14:39:33;2.95;;;2.35;;
72801;SDS011;61891;55.818;37.084;2022-08-11T14:43:46;7.13;;;2.53;;
72801;SDS011;61891;55.818;37.084;2022-08-11T14:47:47;2.45;;;2.25;;
72801;SDS011;61891;55.818;37.084;2022-08-11T15:07:56;2.10;;;1.90;;
72801;SDS011;61891;55.818;37.084;2022-08-11T15:10:23;8.30;;;3.30;;
72801;SDS011;61891;55.818;37.084;2022-08-11T15:12:50;3.47;;;2.33;;
72801;SDS011;61891;55.818;37.084;2022-08-11T15:15:16;4.25;;;2.45;;
72801;SDS011;61891;55.818;37.084;2022-08-11T15:18:02;3.50;;;2.40;;
72801;SDS011;61891;55.818;37.084;2022-08-11T15:20:31;6.50;;;2.72;;
72801;SDS011;61891;55.818;37.084;2022-08-11T15:23:16;5.10;;;3.60;;
72801;SDS011;61891;55.818;37.084;2022-08-11T15:26:02;3.72;;;3.40;;
72801;SDS011;61891;55.818;37.084;2022-08-11T15:28:33;3.88;;;3.38;;
72801;SDS011;61891;55.818;37.084;2022-08-11T15:31:22;8.07;;;5.95;;
72801;SDS011;61891;55.818;37.084;2022-08-11T15:34:10;12.43;;;7.65;;
72801;SDS011;61891;55.818;37.084;2022-08-11T15:36:58;8.38;;;6.90;;
72801;SDS011;61891;55.818;37.084;2022-08-11T15:39:48;8.15;;;6.13;;
72801;SDS011;61891;55.818;37.084;2022-08-11T15:42:39;14.57;;;10.88;;
72801;SDS011;61891;55.818;37.084;2022-08-11T15:45:30;15.38;;;11.05;;
72801;SDS011;61891;55.818;37.084;2022-08-11T15:48:13;8.73;;;7.82;;
72801;SDS011;61891;55.818;37.084;2022-08-11T15:50:49;9.55;;;6.72;;
72801;SDS011;61891;55.818;37.084;2022-08-11T15:55:58;4.10;;;3.60;;
72801;SDS011;61891;55.818;37.084;2022-08-11T15:58:31;12.65;;;8.23;;
72801;SDS011;61891;55.818;37.084;2022-08-11T16:01:19;11.63;;;8.23;;
72801;SDS011;61891;55.818;37.084;2022-08-11T16:04:08;14.68;;;10.63;;
72801;SDS011;61891;55.818;37.084;2022-08-11T16:09:25;14.55;;;8.38;;
72801;SDS011;61891;55.818;37.084;2022-08-11T16:11:55;11.55;;;6.75;;
72801;SDS011;61891;55.818;37.084;2022-08-11T16:17:11;28.63;;;19.85;;
72801;SDS011;61891;55.818;37.084;2022-08-11T16:19:41;21.55;;;17.50;;
72801;SDS011;61891;55.818;37.084;2022-08-11T16:22:11;20.98;;;15.32;;
72801;SDS011;61891;55.818;37.084;2022-08-11T16:24:42;25.52;;;18.98;;
72801;SDS011;61891;55.818;37.084;2022-08-11T16:27:10;26.08;;;17.65;;
72801;SDS011;61891;55.818;37.084;2022-08-11T16:29:42;47.92;;;32.10;;
72801;SDS011;61891;55.818;37.084;2022-08-11T16:32:12;50.67;;;29.27;;
72801;SDS011;61891;55.818;37.084;2022-08-11T16:34:54;24.88;;;14.82;;
72801;SDS011;61891;55.818;37.084;2022-08-11T16:37:42;13.77;;;8.93;;
72801;SDS011;61891;55.818;37.084;2022-08-11T16:40:27;29.80;;;14.77;;
72801;SDS011;61891;55.818;37.084;2022-08-11T16:42:57;23.75;;;13.40;;
72801;SDS011;61891;55.818;37.084;2022-08-11T16:45:42;25.25;;;15.85;;
72801;SDS011;61891;55.818;37.084;2022-08-11T16:48:33;33.67;;;19.15;;
72801;SDS011;61891;55.818;37.084;2022-08-11T16:51:00;36.30;;;17.17;;
72801;SDS011;61891;55.818;37.084;2022-08-11T16:53:27;25.13;;;13.48;;
72801;SDS011;61891;55.818;37.084;2022-08-11T16:55:55;22.65;;;11.00;;
72801;SDS011;61891;55.818;37.084;2022-08-11T16:58:27;24.65;;;11.38;;
72801;SDS011;61891;55.818;37.084;2022-08-11T17:01:15;23.90;;;12.48;;
72801;SDS011;61891;55.818;37.084;2022-08-11T17:03:45;25.55;;;12.75;;
72801;SDS011;61891;55.818;37.084;2022-08-11T17:06:34;14.80;;;8.75;;
72801;SDS011;61891;55.818;37.084;2022-08-11T17:09:21;10.98;;;6.70;;
72801;SDS011;61891;55.818;37.084;2022-08-11T17:12:07;35.15;;;22.55;;
72801;SDS011;61891;55.818;37.084;2022-08-11T17:14:56;61.35;;;38.33;;
72801;SDS011;61891;55.818;37.084;2022-08-11T17:17:35;118.80;;;69.72;;
72801;SDS011;61891;55.818;37.084;2022-08-11T17:20:06;184.80;;;98.32;;
72801;SDS011;61891;55.818;37.084;2022-08-11T17:22:37;154.80;;;84.43;;
72801;SDS011;61891;55.818;37.084;2022-08-11T17:25:25;103.55;;;61.53;;
72801;SDS011;61891;55.818;37.084;2022-08-11T17:27:56;189.93;;;131.27;;
72801;SDS011;61891;55.818;37.084;2022-08-11T17:30:24;123.50;;;74.20;;
72801;SDS011;61891;55.818;37.084;2022-08-11T17:33:11;163.70;;;92.63;;
72801;SDS011;61891;55.818;37.084;2022-08-11T17:35:56;125.65;;;72.30;;
72801;SDS011;61891;55.818;37.084;2022-08-11T17:38:24;86.15;;;52.33;;
72801;SDS011;61891;55.818;37.084;2022-08-11T17:40:52;70.95;;;43.75;;
72801;SDS011;61891;55.818;37.084;2022-08-11T17:43:38;61.53;;;40.50;;
72801;SDS011;61891;55.818;37.084;2022-08-11T17:54:16;33.63;;;19.40;;
72801;SDS011;61891;55.818;37.084;2022-08-11T17:57:51;60.67;;;31.05;;
72801;SDS011;61891;55.818;37.084;2022-08-11T18:05:11;59.95;;;27.75;;
72801;SDS011;61891;55.818;37.084;2022-08-11T18:07:40;37.13;;;18.55;;
72801;SDS011;61891;55.818;37.084;2022-08-11T18:10:26;34.50;;;18.65;;
72801;SDS011;61891;55.818;37.084;2022-08-11T18:13:14;37.80;;;19.65;;
72801;SDS011;61891;55.818;37.084;2022-08-11T18:16:00;27.88;;;15.05;;
72801;SDS011;61891;55.818;37.084;2022-08-11T18:18:44;31.17;;;17.15;;
72801;SDS011;61891;55.818;37.084;2022-08-11T18:21:29;64.22;;;31.17;;
72801;SDS011;61891;55.818;37.084;2022-08-11T18:26:59;38.97;;;21.15;;
72801;SDS011;61891;55.818;37.084;2022-08-11T18:29:47;46.15;;;25.55;;
72801;SDS011;61891;55.818;37.084;2022-08-11T18:32:35;31.60;;;16.40;;
72801;SDS011;61891;55.818;37.084;2022-08-11T18:35:21;25.13;;;15.40;;
72801;SDS011;61891;55.818;37.084;2022-08-11T18:38:10;23.08;;;13.68;;
72801;SDS011;61891;55.818;37.084;2022-08-11T18:40:56;26.45;;;13.60;;
72801;SDS011;61891;55.818;37.084;2022-08-11T18:43:44;25.63;;;13.57;;
72801;SDS011;61891;55.818;37.084;2022-08-11T18:46:32;17.08;;;11.23;;
72801;SDS011;61891;55.818;37.084;2022-08-11T18:49:20;20.85;;;12.90;;
72801;SDS011;61891;55.818;37.084;2022-08-11T18:52:08;15.68;;;9.45;;
72801;SDS011;61891;55.818;37.084;2022-08-11T18:54:55;13.27;;;8.50;;
72801;SDS011;61891;55.818;37.084;2022-08-11T18:57:44;19.33;;;12.13;;
72801;SDS011;61891;55.818;37.084;2022-08-11T19:00:32;16.48;;;10.13;;
72801;SDS011;61891;55.818;37.084;2022-08-11T19:03:19;14.52;;;9.10;;
72801;SDS011;61891;55.818;37.084;2022-08-11T19:06:05;11.40;;;8.45;;
72801;SDS011;61891;55.818;37.084;2022-08-11T19:08:52;10.27;;;9.18;;
72801;SDS011;61891;55.818;37.084;2022-08-11T19:11:43;17.15;;;9.13;;
72801;SDS011;61891;55.818;37.084;2022-08-11T19:14:29;14.15;;;10.27;;
72801;SDS011;61891;55.818;37.084;2022-08-11T19:17:15;13.27;;;8.75;;
72801;SDS011;61891;55.818;37.084;2022-08-11T19:20:05;11.27;;;8.18;;
72801;SDS011;61891;55.818;37.084;2022-08-11T19:22:55;12.55;;;8.85;;
72801;SDS011;61891;55.818;37.084;2022-08-11T19:25:42;11.77;;;7.40;;
72801;SDS011;61891;55.818;37.084;2022-08-11T19:28:27;11.90;;;7.80;;
72801;SDS011;61891;55.818;37.084;2022-08-11T19:31:12;11.63;;;8.18;;
72801;SDS011;61891;55.818;37.084;2022-08-11T19:33:57;10.40;;;7.90;;
72801;SDS011;61891;55.818;37.084;2022-08-11T19:36:42;9.80;;;6.50;;
72801;SDS011;61891;55.818;37.084;2022-08-11T19:39:28;13.65;;;7.38;;
72801;SDS011;61891;55.818;37.084;2022-08-11T19:42:14;17.23;;;9.95;;
72801;SDS011;61891;55.818;37.084;2022-08-11T19:44:59;17.83;;;11.48;;
72801;SDS011;61891;55.818;37.084;2022-08-11T19:47:45;17.48;;;10.48;;
72801;SDS011;61891;55.818;37.084;2022-08-11T19:50:31;16.88;;;9.35;;
72801;SDS011;61891;55.818;37.084;2022-08-11T19:53:17;13.27;;;9.45;;
72801;SDS011;61891;55.818;37.084;2022-08-11T19:56:03;14.50;;;8.05;;
72801;SDS011;61891;55.818;37.084;2022-08-11T19:58:49;10.52;;;6.85;;
72801;SDS011;61891;55.818;37.084;2022-08-11T20:01:34;21.52;;;8.02;;
72801;SDS011;61891;55.818;37.084;2022-08-11T20:04:18;14.30;;;8.93;;
72801;SDS011;61891;55.818;37.084;2022-08-11T20:07:03;15.98;;;11.00;;
72801;SDS011;61891;55.818;37.084;2022-08-11T20:09:48;11.15;;;8.23;;
72801;SDS011;61891;55.818;37.084;2022-08-11T20:12:33;13.18;;;7.88;;
72801;SDS011;61891;55.818;37.084;2022-08-11T20:15:21;11.30;;;7.68;;
72801;SDS011;61891;55.818;37.084;2022-08-11T20:18:07;21.83;;;13.05;;
72801;SDS011;61891;55.818;37.084;2022-08-11T20:20:55;12.85;;;9.15;;
72801;SDS011;61891;55.818;37.084;2022-08-11T20:23:43;12.65;;;8.38;;
72801;SDS011;61891;55.818;37.084;2022-08-11T20:26:30;12.60;;;9.07;;
72801;SDS011;61891;55.818;37.084;2022-08-11T20:29:16;10.52;;;9.07;;
72801;SDS011;61891;55.818;37.084;2022-08-11T20:32:02;11.77;;;8.88;;
72801;SDS011;61891;55.818;37.084;2022-08-11T20:34:47;11.75;;;7.72;;
72801;SDS011;61891;55.818;37.084;2022-08-11T20:37:33;9.68;;;7.50;;
72801;SDS011;61891;55.818;37.084;2022-08-11T20:40:19;9.52;;;8.55;;
72801;SDS011;61891;55.818;37.084;2022-08-11T20:43:07;13.10;;;8.55;;
72801;SDS011;61891;55.818;37.084;2022-08-11T20:45:55;11.30;;;7.85;;
72801;SDS011;61891;55.818;37.084;2022-08-11T20:48:40;12.25;;;7.88;;
72801;SDS011;61891;55.818;37.084;2022-08-11T20:51:25;10.88;;;8.30;;
72801;SDS011;61891;55.818;37.084;2022-08-11T20:54:10;12.70;;;8.15;;
72801;SDS011;61891;55.818;37.084;2022-08-11T20:56:55;12.93;;;8.65;;
72801;SDS011;61891;55.818;37.084;2022-08-11T20:59:41;11.38;;;8.60;;